Time;durP1;ratioP1;P1;durP2;ratioP2;P2;SDS_P1;SDS_P2;PMS_P1;PMS_P2;Temp;Humidity;BMP_temperature;BMP_pressure;BME280_temperature;BME280_humidity;BME280_pressure;Samples;Min_cycle;Max_cycle;Signal;HPM_P1;HPM_P2
2022/04/14 04:02:41;;;;;;;15.70;11.30;;;6.70;99.90;;;;;;6222028;23;20117;-75
2022/04/14 04:05:08;;;;;;;14.95;11.10;;;6.80;99.90;;;;;;6222115;23;20044;-75
2022/04/14 04:07:33;;;;;;;17.63;11.65;;;6.80;99.90;;;;;;6222128;23;20024;-75
2022/04/14 04:09:59;;;;;;;14.68;11.52;;;6.80;99.90;;;;;;6195331;23;20452;-76
2022/04/14 04:12:25;;;;;;;16.35;11.40;;;6.80;99.90;;;;;;6195352;23;20025;-75
2022/04/14 04:14:51;;;;;;;15.75;12.02;;;6.70;99.90;;;;;;6259028;22;20012;-78
2022/04/14 04:17:17;;;;;;;16.63;11.95;;;6.70;99.90;;;;;;6283128;22;20050;-78
2022/04/14 04:19:43;;;;;;;16.42;12.07;;;6.70;99.90;;;;;;6282496;22;20087;-78
2022/04/14 04:22:10;;;;;;;20.40;12.10;;;6.70;99.90;;;;;;6256170;22;20049;-78
2022/04/14 04:24:36;;;;;;;14.23;10.07;;;6.70;99.90;;;;;;6284236;22;20422;-78
2022/04/14 04:27:01;;;;;;;14.57;9.73;;;6.70;99.90;;;;;;6284386;22;20015;-78
2022/04/14 04:29:27;;;;;;;12.95;8.82;;;6.60;99.90;;;;;;6284104;22;20062;-78
2022/04/14 04:31:52;;;;;;;15.48;9.68;;;6.60;99.90;;;;;;6284109;22;20066;-77
2022/04/14 04:34:18;;;;;;;12.95;9.07;;;6.60;99.90;;;;;;6283702;22;19997;-78
2022/04/14 04:36:44;;;;;;;13.05;9.63;;;6.60;99.90;;;;;;6284351;22;20013;-75
2022/04/14 04:39:09;;;;;;;17.00;10.70;;;6.50;99.90;;;;;;6284172;22;20027;-78
2022/04/14 04:41:35;;;;;;;19.17;11.40;;;6.50;99.90;;;;;;6257188;22;20012;-78
2022/04/14 04:44:00;;;;;;;12.80;10.23;;;6.50;99.90;;;;;;6284640;22;20319;-78
2022/04/14 04:46:26;;;;;;;16.45;9.80;;;6.70;99.90;;;;;;6257131;22;20083;-78
2022/04/14 04:48:51;;;;;;;14.27;9.45;;;6.70;99.90;;;;;;6284563;22;20099;-77
2022/04/14 04:51:17;;;;;;;14.32;9.93;;;6.70;99.90;;;;;;6284115;22;20035;-77
2022/04/14 04:53:43;;;;;;;15.85;9.32;;;6.70;99.90;;;;;;6283812;22;20014;-77
2022/04/14 04:56:09;;;;;;;15.95;9.75;;;6.80;99.90;;;;;;6283921;22;20067;-77
2022/04/14 04:58:34;;;;;;;14.10;9.30;;;6.70;99.90;;;;;;6256943;22;20016;-77
2022/04/14 05:01:00;;;;;;;14.70;9.73;;;6.70;99.90;;;;;;6284689;22;20016;-77
2022/04/14 05:03:25;;;;;;;13.85;10.00;;;6.70;99.90;;;;;;6284382;22;20440;-78
2022/04/14 05:05:51;;;;;;;16.48;9.77;;;6.80;99.90;;;;;;6256353;22;20008;-78
2022/04/14 05:08:16;;;;;;;17.48;9.80;;;6.80;99.90;;;;;;6283907;22;20007;-78
2022/04/14 05:10:42;;;;;;;16.95;10.13;;;6.80;99.90;;;;;;6284234;22;20012;-78
2022/04/14 05:13:08;;;;;;;15.52;10.50;;;6.90;99.90;;;;;;6283943;22;20008;-78
2022/04/14 05:15:35;;;;;;;13.95;10.43;;;7.00;99.90;;;;;;6251119;22;20099;-79
2022/04/14 05:18:01;;;;;;;21.33;11.27;;;7.10;99.90;;;;;;6251245;22;20005;-78
2022/04/14 05:20:26;;;;;;;14.95;11.18;;;7.20;99.90;;;;;;6252614;22;20015;-78
2022/04/14 05:22:52;;;;;;;14.88;10.63;;;7.30;99.90;;;;;;6253350;22;20058;-79
2022/04/14 05:25:17;;;;;;;14.70;10.05;;;7.40;99.90;;;;;;6251537;22;20013;-77
2022/04/14 05:27:43;;;;;;;14.18;10.18;;;7.50;99.90;;;;;;6253039;22;20059;-77
2022/04/14 05:30:11;;;;;;;14.77;9.52;;;7.60;99.90;;;;;;6252547;22;20013;-78
2022/04/14 05:32:38;;;;;;;19.75;10.35;;;7.70;99.90;;;;;;6253770;22;20004;-80
2022/04/14 05:35:06;;;;;;;18.35;10.60;;;7.80;99.90;;;;;;6255093;22;20453;-79
2022/04/14 05:37:31;;;;;;;14.25;10.13;;;7.90;99.90;;;;;;6253509;22;20027;-79
2022/04/14 05:39:57;;;;;;;15.52;9.65;;;8.00;99.90;;;;;;6251225;22;20083;-79
2022/04/14 05:42:23;;;;;;;16.15;10.20;;;8.10;99.90;;;;;;6253484;22;20011;-78
2022/04/14 05:44:48;;;;;;;12.93;9.50;;;8.20;99.90;;;;;;6252678;22;20005;-78
2022/04/14 05:47:14;;;;;;;13.65;9.30;;;8.20;99.90;;;;;;6251668;22;20080;-80
2022/04/14 05:49:40;;;;;;;13.95;9.32;;;8.20;99.90;;;;;;6253299;22;20012;-79
2022/04/14 05:52:06;;;;;;;18.63;9.23;;;8.20;99.90;;;;;;6257739;22;20001;-78
2022/04/14 05:54:31;;;;;;;17.50;9.70;;;8.30;99.90;;;;;;6253348;22;20433;-79
2022/04/14 05:56:57;;;;;;;12.45;9.00;;;8.30;99.90;;;;;;6251755;22;20016;-77
2022/04/14 05:59:22;;;;;;;15.15;9.85;;;8.40;99.90;;;;;;6253565;22;20008;-79
2022/04/14 06:01:48;;;;;;;18.77;9.90;;;8.40;99.90;;;;;;6254323;22;20011;-79
2022/04/14 06:04:13;;;;;;;16.63;10.32;;;8.50;99.90;;;;;;6253793;22;20005;-78
2022/04/14 06:06:39;;;;;;;21.17;11.13;;;8.60;99.90;;;;;;6254101;22;20012;-79
2022/04/14 06:09:05;;;;;;;18.13;10.68;;;8.60;99.90;;;;;;6253559;22;20013;-79
2022/04/14 06:11:31;;;;;;;20.20;10.27;;;8.80;99.90;;;;;;6253836;22;20324;-79
2022/04/14 06:13:56;;;;;;;16.35;9.38;;;8.80;99.90;;;;;;6254917;22;20062;-79
2022/04/14 06:16:22;;;;;;;13.93;9.98;;;8.90;99.90;;;;;;6255593;22;20079;-79
2022/04/14 06:18:47;;;;;;;13.70;9.75;;;9.00;99.90;;;;;;6254816;22;20058;-78
2022/04/14 06:21:13;;;;;;;15.13;9.38;;;9.10;99.90;;;;;;6253910;22;20008;-77
2022/04/14 06:23:39;;;;;;;16.70;10.38;;;9.20;99.90;;;;;;6227859;22;20028;-77
2022/04/14 06:26:05;;;;;;;16.23;10.25;;;9.20;99.90;;;;;;6254504;22;20332;-77
2022/04/14 06:28:31;;;;;;;13.48;10.40;;;9.30;99.90;;;;;;6226407;22;20016;-77
2022/04/14 06:30:57;;;;;;;14.88;10.27;;;9.50;99.90;;;;;;6254781;22;20016;-78
2022/04/14 06:33:23;;;;;;;17.50;10.88;;;9.60;99.90;;;;;;6226829;22;20124;-78
2022/04/14 06:35:49;;;;;;;15.15;10.35;;;9.70;99.90;;;;;;6228368;22;20341;-79
2022/04/14 06:38:16;;;;;;;19.42;11.20;;;9.90;99.90;;;;;;6254347;22;20038;-80
2022/04/14 06:40:41;;;;;;;19.50;11.07;;;10.00;99.90;;;;;;6254189;22;20411;-79
2022/04/14 06:43:07;;;;;;;17.90;11.15;;;10.20;99.90;;;;;;6253028;22;20005;-79
2022/04/14 06:45:33;;;;;;;14.30;10.68;;;10.20;99.90;;;;;;6252910;22;20005;-80
2022/04/14 06:48:01;;;;;;;14.95;11.27;;;10.40;99.90;;;;;;6253682;22;20008;-79
2022/04/14 06:50:27;;;;;;;20.90;12.57;;;10.50;99.90;;;;;;6226353;22;20361;-79
2022/04/14 06:52:53;;;;;;;19.83;13.50;;;10.60;99.90;;;;;;6253669;22;20027;-80
2022/04/14 06:55:21;;;;;;;23.48;16.90;;;10.70;99.90;;;;;;6227164;22;20032;-80
2022/04/14 06:57:47;;;;;;;28.67;19.55;;;10.90;99.90;;;;;;6253722;22;20047;-79
2022/04/14 07:00:13;;;;;;;28.80;19.60;;;11.00;99.90;;;;;;6253742;22;20016;-80
2022/04/14 07:02:49;;;;;;;26.92;19.38;;;11.10;99.90;;;;;;6226763;22;20344;-80
2022/04/14 07:05:15;;;;;;;33.40;21.65;;;11.30;99.90;;;;;;6226550;22;20391;-79
2022/04/14 07:07:40;;;;;;;30.30;19.95;;;11.40;99.90;;;;;;6253665;22;20068;-79
2022/04/14 07:10:06;;;;;;;33.15;21.05;;;11.60;99.90;;;;;;6253612;22;20016;-80
2022/04/14 07:12:32;;;;;;;30.05;20.00;;;11.80;99.90;;;;;;6254009;22;20047;-80
2022/04/14 07:15:00;;;;;;;29.58;21.13;;;11.90;99.90;;;;;;6241581;22;20016;-79
2022/04/14 07:17:26;;;;;;;31.30;20.80;;;12.00;99.90;;;;;;6252546;22;20732;-79
2022/04/14 07:19:52;;;;;;;34.05;22.05;;;12.10;99.90;;;;;;6251238;22;20009;-79
2022/04/14 07:22:20;;;;;;;33.03;20.70;;;12.30;99.90;;;;;;6254811;22;20004;-82
2022/04/14 07:24:50;;;;;;;33.92;21.83;;;12.40;99.90;;;;;;6251816;22;20008;-83
2022/04/14 07:27:18;;;;;;;31.88;21.30;;;12.60;99.90;;;;;;6253587;22;20004;-77
2022/04/14 07:29:45;;;;;;;32.17;21.90;;;12.70;99.90;;;;;;6253158;22;20004;-78
2022/04/14 07:32:12;;;;;;;33.65;21.00;;;12.90;99.90;;;;;;6258166;22;20451;-81
2022/04/14 07:34:40;;;;;;;30.17;22.23;;;13.00;99.90;;;;;;6260338;22;20356;-78
2022/04/14 07:37:06;;;;;;;34.50;21.70;;;13.20;99.90;;;;;;6262195;22;20015;-78
2022/04/14 07:39:32;;;;;;;32.35;21.10;;;13.40;99.90;;;;;;6261838;22;20004;-82
2022/04/14 07:41:58;;;;;;;29.80;21.63;;;13.50;99.90;;;;;;6257983;22;20012;-80
2022/04/14 07:44:23;;;;;;;34.58;22.67;;;13.60;99.90;;;;;;6258467;22;20005;-82
2022/04/14 07:46:50;;;;;;;35.85;21.65;;;13.70;99.90;;;;;;6255649;22;20428;-79
2022/04/14 07:49:15;;;;;;;34.38;22.13;;;13.80;99.90;;;;;;6252613;22;20013;-80
2022/04/14 07:51:41;;;;;;;26.40;19.90;;;13.80;99.90;;;;;;6253122;22;20067;-80
2022/04/14 07:54:07;;;;;;;30.42;20.73;;;14.00;99.90;;;;;;6251561;22;20076;-80
2022/04/14 07:56:33;;;;;;;32.45;21.25;;;14.10;99.90;;;;;;6251927;22;20432;-80
2022/04/14 07:58:59;;;;;;;34.05;20.55;;;14.20;99.90;;;;;;6252761;22;20059;-80
2022/04/14 08:01:25;;;;;;;31.98;22.05;;;14.40;99.90;;;;;;6253097;22;20001;-80
2022/04/14 08:03:51;;;;;;;29.67;20.95;;;14.50;99.90;;;;;;6253582;22;20005;-80
2022/04/14 08:06:17;;;;;;;29.83;20.42;;;14.60;99.90;;;;;;6252556;22;20012;-81
2022/04/14 08:08:43;;;;;;;30.58;18.80;;;14.70;99.90;;;;;;6251552;22;20005;-78
2022/04/14 08:11:10;;;;;;;27.80;19.63;;;14.80;99.90;;;;;;6254126;22;20013;-80
2022/04/14 08:13:38;;;;;;;30.45;18.67;;;15.00;99.90;;;;;;6252245;22;20012;-80
2022/04/14 08:16:06;;;;;;;26.30;17.83;;;15.00;99.90;;;;;;6254479;22;20476;-80
2022/04/14 08:18:36;;;;;;;29.35;18.33;;;15.10;99.90;;;;;;6226957;22;20484;-80
2022/04/14 08:21:03;;;;;;;31.23;18.75;;;15.10;99.90;;;;;;6226509;22;20460;-79
2022/04/14 08:23:41;;;;;;;31.83;18.50;;;15.10;99.90;;;;;;6257129;22;20001;-80
2022/04/14 08:26:08;;;;;;;24.42;15.80;;;15.20;99.90;;;;;;6257349;22;20009;-82
2022/04/14 08:28:35;;;;;;;22.60;16.25;;;15.40;99.90;;;;;;6256406;22;20131;-81
2022/04/14 08:31:02;;;;;;;22.58;16.48;;;15.40;99.90;;;;;;6257430;22;20000;-81
2022/04/14 08:33:28;;;;;;;22.38;16.42;;;15.50;99.90;;;;;;6256537;22;20023;-81
2022/04/14 08:35:54;;;;;;;20.40;13.90;;;15.60;99.90;;;;;;6228986;22;20144;-78
2022/04/14 08:38:21;;;;;;;22.85;14.13;;;15.70;99.90;;;;;;6225976;22;20052;-78
2022/04/14 08:40:51;;;;;;;21.42;14.05;;;15.90;99.90;;;;;;6224758;22;20013;-78
2022/04/14 08:43:22;;;;;;;25.48;14.13;;;16.00;99.90;;;;;;6253054;22;20161;-78
2022/04/14 08:45:48;;;;;;;21.55;13.07;;;16.30;99.90;;;;;;6228231;22;20024;-77
2022/04/14 08:48:15;;;;;;;21.40;13.25;;;16.50;99.90;;;;;;6220381;22;20004;-79
2022/04/14 08:50:45;;;;;;;20.73;12.60;;;16.80;99.90;;;;;;6221208;22;20484;-79
2022/04/14 08:53:11;;;;;;;16.75;12.77;;;16.90;99.90;;;;;;6224576;22;20039;-78
2022/04/14 08:55:41;;;;;;;20.50;12.52;;;16.90;99.90;;;;;;6250551;22;20415;-78
2022/04/14 08:58:11;;;;;;;16.65;11.13;;;16.90;99.90;;;;;;6223076;22;20005;-81
2022/04/14 09:00:37;;;;;;;18.77;11.23;;;17.00;99.90;;;;;;6250816;22;20012;-78
2022/04/14 09:03:03;;;;;;;20.60;12.52;;;17.00;99.90;;;;;;6249554;22;20008;-79
2022/04/14 09:05:29;;;;;;;16.77;11.48;;;17.20;99.90;;;;;;6221896;22;20019;-78
2022/04/14 09:07:54;;;;;;;16.67;12.38;;;17.30;99.90;;;;;;6250502;22;20035;-80
2022/04/14 09:10:20;;;;;;;19.45;11.43;;;17.40;99.90;;;;;;6252463;22;20059;-78
2022/04/14 09:12:49;;;;;;;17.80;10.90;;;17.20;99.90;;;;;;6252409;22;20436;-78
2022/04/14 09:15:16;;;;;;;16.13;11.45;;;17.30;99.90;;;;;;6251823;22;20468;-78
2022/04/14 09:17:43;;;;;;;17.15;11.05;;;17.50;99.90;;;;;;6252018;22;20017;-78
2022/04/14 09:20:26;;;;;;;15.57;10.93;;;17.60;99.90;;;;;;6252230;22;20032;-79
2022/04/14 09:23:15;;;;;;;14.85;11.13;;;17.70;99.90;;;;;;6252389;22;20468;-79
2022/04/14 09:25:42;;;;;;;13.68;11.05;;;17.90;99.90;;;;;;6253079;22;20015;-78
2022/04/14 09:28:16;;;;;;;17.98;10.82;;;17.90;99.90;;;;;;6253469;22;20033;-79
2022/04/14 09:31:07;;;;;;;15.93;10.90;;;18.10;99.90;;;;;;6254197;22;20004;-79
2022/04/14 09:33:34;;;;;;;19.48;10.98;;;18.40;99.90;;;;;;6253529;22;20320;-78
2022/04/14 09:36:10;;;;;;;19.10;10.00;;;18.50;99.90;;;;;;6253010;22;20078;-78
2022/04/14 09:38:55;;;;;;;16.05;10.48;;;18.60;99.90;;;;;;6251751;22;20001;-79
2022/04/14 09:41:30;;;;;;;14.50;10.75;;;18.70;99.90;;;;;;6252358;22;20055;-79
2022/04/14 09:43:58;;;;;;;16.55;11.38;;;18.50;99.90;;;;;;6252397;22;20551;-79
2022/04/14 09:46:24;;;;;;;15.95;12.50;;;18.60;99.90;;;;;;6252710;22;20008;-79
2022/04/14 09:49:07;;;;;;;16.77;11.25;;;18.70;99.90;;;;;;6252370;22;20000;-79
2022/04/14 09:51:35;;;;;;;17.15;10.68;;;18.80;99.90;;;;;;6225609;22;20018;-78
2022/04/14 09:54:05;;;;;;;17.05;10.40;;;18.70;99.90;;;;;;6225143;22;20059;-79
2022/04/14 09:56:46;;;;;;;14.32;10.40;;;18.60;99.90;;;;;;6252368;22;20023;-78
2022/04/14 09:59:13;;;;;;;17.33;11.45;;;18.80;99.90;;;;;;6251916;22;20005;-77
2022/04/14 10:01:39;;;;;;;36.75;17.63;;;18.90;99.90;;;;;;6252412;22;20005;-78
2022/04/14 10:04:06;;;;;;;13.50;10.00;;;19.10;99.70;;;;;;6252673;22;20012;-80
2022/04/14 10:06:31;;;;;;;15.15;9.85;;;19.40;99.90;;;;;;6252752;22;20135;-78
2022/04/14 10:08:57;;;;;;;19.42;11.85;;;19.30;99.40;;;;;;6252512;22;20072;-79
2022/04/14 10:11:35;;;;;;;17.60;10.60;;;19.40;98.60;;;;;;6253054;22;20009;-78
2022/04/14 10:14:23;;;;;;;16.73;10.32;;;19.50;98.40;;;;;;6252068;22;20078;-83
2022/04/14 10:16:49;;;;;;;17.50;10.23;;;19.60;97.20;;;;;;6252880;22;20023;-78
2022/04/14 10:19:15;;;;;;;13.65;9.77;;;19.70;96.10;;;;;;6251394;22;20059;-79
2022/04/14 10:21:44;;;;;;;18.88;9.30;;;19.70;95.80;;;;;;6225718;22;20088;-78
2022/04/14 10:24:11;;;;;;;16.45;10.02;;;20.00;94.80;;;;;;6252988;22;20001;-78
2022/04/14 10:26:37;;;;;;;18.45;10.23;;;20.00;94.60;;;;;;6225049;22;20052;-78
2022/04/14 10:29:06;;;;;;;16.77;9.70;;;20.20;94.80;;;;;;6251713;22;20005;-78
2022/04/14 10:31:35;;;;;;;18.83;9.80;;;20.10;94.50;;;;;;6252352;22;20004;-82
2022/04/14 10:34:06;;;;;;;13.77;10.05;;;20.30;92.50;;;;;;6226409;22;20539;-81
2022/04/14 10:36:44;;;;;;;12.23;8.95;;;20.30;93.30;;;;;;6226639;22;20428;-82
2022/04/14 10:39:18;;;;;;;16.52;10.10;;;20.10;93.10;;;;;;6228604;22;20004;-82
2022/04/14 10:41:48;;;;;;;17.52;11.20;;;20.20;92.00;;;;;;6256562;22;20035;-82
2022/04/14 10:44:19;;;;;;;17.25;11.68;;;20.30;93.40;;;;;;6229630;22;20448;-82
2022/04/14 10:46:48;;;;;;;22.65;11.98;;;20.20;95.00;;;;;;6255648;22;20043;-81
2022/04/14 10:49:15;;;;;;;18.15;11.10;;;20.20;93.90;;;;;;6255067;22;20432;-80
2022/04/14 10:51:43;;;;;;;17.88;10.70;;;20.50;95.10;;;;;;6227849;22;20009;-80
2022/04/14 10:54:12;;;;;;;18.30;10.85;;;20.70;93.00;;;;;;6226638;22;20144;-81
2022/04/14 10:56:44;;;;;;;17.90;10.52;;;20.80;93.30;;;;;;6253987;22;20020;-82
2022/04/14 10:59:19;;;;;;;19.23;10.52;;;21.00;92.50;;;;;;6253476;22;20822;-82
2022/04/14 11:01:51;;;;;;;19.30;11.80;;;21.40;91.90;;;;;;6254779;22;20028;-82
2022/04/14 11:04:47;;;;;;;18.30;12.23;;;21.50;92.00;;;;;;6254190;22;20008;-83
2022/04/14 11:07:23;;;;;;;15.60;10.85;;;21.40;91.70;;;;;;6254948;22;20043;-83
2022/04/14 11:09:50;;;;;;;17.58;10.55;;;21.40;91.60;;;;;;6227048;22;20066;-83
2022/04/14 11:12:19;;;;;;;16.83;11.20;;;21.60;91.60;;;;;;6255156;22;20011;-81
2022/04/14 11:14:46;;;;;;;16.42;11.45;;;22.00;92.20;;;;;;6245157;22;20008;-80
2022/04/14 11:17:30;;;;;;;20.95;11.93;;;22.00;90.50;;;;;;6258249;22;20038;-81
2022/04/14 11:20:12;;;;;;;15.18;11.02;;;21.70;91.30;;;;;;6258696;22;20075;-77
2022/04/14 11:23:07;;;;;;;18.27;11.15;;;21.70;92.20;;;;;;6314742;22;20474;-77
2022/04/14 11:25:43;;;;;;;14.73;10.40;;;22.00;90.90;;;;;;6314836;22;20003;-78
2022/04/14 11:28:24;;;;;;;17.05;11.30;;;22.10;90.10;;;;;;6314782;22;20008;-78
2022/04/14 11:30:53;;;;;;;16.65;10.70;;;22.10;89.70;;;;;;6314951;22;19999;-77
2022/04/14 11:33:36;;;;;;;16.02;10.52;;;22.20;91.90;;;;;;6315337;22;20011;-81
2022/04/14 11:36:14;;;;;;;23.35;11.98;;;22.30;92.20;;;;;;6314571;22;20011;-77
2022/04/14 11:39:01;;;;;;;16.45;9.77;;;22.30;90.30;;;;;;6312953;22;20008;-77
2022/04/14 11:41:49;;;;;;;15.82;10.60;;;22.60;89.20;;;;;;6312883;22;20418;-77
2022/04/14 11:44:18;;;;;;;15.45;10.38;;;22.80;88.80;;;;;;6311933;22;20057;-77
2022/04/14 11:46:55;;;;;;;12.85;10.20;;;23.00;88.40;;;;;;6313509;22;20010;-77
2022/04/14 11:49:31;;;;;;;13.15;9.98;;;23.00;86.70;;;;;;6312860;22;20007;-77
2022/04/14 11:52:04;;;;;;;15.48;11.05;;;23.60;86.60;;;;;;6313023;22;20008;-77
2022/04/14 11:54:30;;;;;;;17.00;11.40;;;24.10;85.30;;;;;;6313189;22;20054;-77
2022/04/14 11:57:01;;;;;;;14.65;11.52;;;24.00;83.50;;;;;;6312410;22;20439;-78
2022/04/14 11:59:31;;;;;;;14.25;11.30;;;23.50;86.40;;;;;;6312610;22;20086;-78
2022/04/14 12:02:03;;;;;;;22.00;12.43;;;23.40;86.70;;;;;;6315575;22;20039;-79
2022/04/14 12:04:48;;;;;;;15.10;11.20;;;23.60;87.00;;;;;;6312779;22;20075;-77
2022/04/14 12:07:15;;;;;;;17.55;12.20;;;24.00;85.00;;;;;;6317605;22;20073;-78
2022/04/14 12:09:41;;;;;;;17.30;12.13;;;24.70;85.30;;;;;;6314644;22;20012;-77
2022/04/14 12:12:10;;;;;;;16.98;12.10;;;24.90;85.90;;;;;;6314993;22;20058;-77
2022/04/14 12:14:40;;;;;;;24.92;12.93;;;24.90;84.90;;;;;;6313081;22;20757;-76
2022/04/14 12:17:07;;;;;;;18.95;12.95;;;25.20;86.70;;;;;;6314327;22;20803;-78
2022/04/14 12:19:41;;;;;;;18.85;13.98;;;24.90;84.60;;;;;;6313090;22;19992;-77
2022/04/14 12:22:07;;;;;;;21.17;12.70;;;24.70;86.90;;;;;;6315584;22;20019;-77
2022/04/14 12:24:32;;;;;;;19.20;13.63;;;24.90;84.00;;;;;;6315379;22;20011;-77
2022/04/14 12:26:59;;;;;;;17.42;12.88;;;24.30;85.10;;;;;;6315162;22;20018;-77
2022/04/14 12:29:25;;;;;;;18.95;11.88;;;24.20;84.40;;;;;;6314103;22;20015;-77
2022/04/14 12:32:17;;;;;;;17.45;13.63;;;24.30;84.60;;;;;;6314842;22;20004;-77
2022/04/14 12:34:44;;;;;;;18.48;13.60;;;24.00;84.50;;;;;;6315615;22;20004;-77
2022/04/14 12:37:13;;;;;;;19.55;13.65;;;24.00;86.20;;;;;;6314559;22;20067;-77
2022/04/14 12:39:54;;;;;;;18.92;13.30;;;23.90;86.90;;;;;;6312483;22;20457;-79
2022/04/14 12:42:19;;;;;;;19.55;14.43;;;24.10;87.80;;;;;;6314055;22;20802;-77
2022/04/14 12:44:45;;;;;;;20.70;14.70;;;23.80;88.60;;;;;;6315140;22;20082;-76
2022/04/14 12:47:14;;;;;;;20.70;13.80;;;23.60;88.40;;;;;;6314978;22;20014;-76
2022/04/14 12:49:40;;;;;;;19.75;13.70;;;23.80;90.10;;;;;;6314068;22;20014;-79
2022/04/14 12:52:07;;;;;;;18.30;12.40;;;24.20;88.10;;;;;;6319619;22;20470;-78
2022/04/14 12:54:34;;;;;;;18.63;13.27;;;24.50;85.10;;;;;;6316630;22;20008;-77
2022/04/14 12:57:07;;;;;;;18.90;15.13;;;24.60;88.60;;;;;;6314412;22;20011;-79
2022/04/14 12:59:35;;;;;;;20.83;13.70;;;24.60;84.90;;;;;;6315956;22;20000;-79
2022/04/14 13:02:09;;;;;;;17.55;14.02;;;25.10;85.00;;;;;;6316846;22;20148;-79
2022/04/14 13:04:36;;;;;;;17.45;12.73;;;25.20;86.40;;;;;;6316811;22;20003;-79
2022/04/14 13:07:09;;;;;;;16.45;12.05;;;25.30;82.10;;;;;;6316664;22;20427;-79
2022/04/14 13:09:37;;;;;;;18.90;13.27;;;25.60;82.00;;;;;;6316273;22;20091;-78
2022/04/14 13:12:04;;;;;;;18.45;12.30;;;25.40;81.70;;;;;;6314507;22;20354;-77
2022/04/14 13:14:31;;;;;;;17.88;12.73;;;25.10;82.80;;;;;;6315727;22;20011;-74
2022/04/14 13:17:00;;;;;;;18.38;13.52;;;24.90;86.10;;;;;;6314085;22;20012;-77
2022/04/14 13:19:26;;;;;;;17.50;12.13;;;25.00;84.90;;;;;;6315394;22;20082;-77
2022/04/14 13:21:52;;;;;;;18.58;11.98;;;25.20;84.00;;;;;;6315340;22;20015;-77
2022/04/14 13:24:19;;;;;;;19.60;13.88;;;25.40;80.60;;;;;;6315265;22;20435;-77
2022/04/14 13:26:45;;;;;;;16.83;13.82;;;25.40;80.40;;;;;;6316336;22;20863;-77
2022/04/14 13:29:11;;;;;;;18.63;13.88;;;25.50;84.60;;;;;;6315092;22;20007;-77
2022/04/14 13:31:41;;;;;;;20.27;15.05;;;25.70;81.40;;;;;;6315727;22;20011;-77
2022/04/14 13:34:07;;;;;;;19.27;13.63;;;25.80;81.80;;;;;;6317937;22;20025;-78
2022/04/14 13:36:33;;;;;;;18.10;13.38;;;25.40;82.80;;;;;;6317459;22;20427;-77
2022/04/14 13:39:00;;;;;;;18.25;14.65;;;25.70;85.40;;;;;;6315142;22;20004;-77
2022/04/14 13:41:25;;;;;;;20.23;15.20;;;25.40;83.50;;;;;;6314971;22;20085;-77
2022/04/14 13:43:51;;;;;;;14.43;12.68;;;24.90;84.10;;;;;;6314500;22;20489;-77
2022/04/14 13:46:17;;;;;;;18.63;13.30;;;25.20;83.00;;;;;;6314271;22;20083;-77
2022/04/14 13:48:43;;;;;;;18.90;13.43;;;25.50;84.80;;;;;;6316229;22;20482;-77
2022/04/14 13:51:10;;;;;;;14.75;12.50;;;26.00;82.80;;;;;;6316056;22;20004;-77
2022/04/14 13:53:38;;;;;;;16.15;12.88;;;26.80;78.50;;;;;;6315109;22;20008;-76
2022/04/14 13:56:05;;;;;;;15.90;12.82;;;27.00;77.70;;;;;;6341419;22;20015;-75
2022/04/14 13:58:32;;;;;;;21.40;12.27;;;27.50;74.80;;;;;;6328314;22;20039;-77
2022/04/14 14:00:57;;;;;;;15.38;11.60;;;27.50;74.90;;;;;;6313681;22;20062;-78
2022/04/14 14:03:23;;;;;;;15.93;12.13;;;27.50;73.80;;;;;;6317083;22;20008;-77
2022/04/14 14:05:48;;;;;;;16.38;11.75;;;28.00;71.90;;;;;;6315724;22;20015;-77
2022/04/14 14:08:14;;;;;;;15.45;11.35;;;27.40;75.50;;;;;;6313426;22;20015;-75
2022/04/14 14:10:41;;;;;;;18.50;13.13;;;26.40;75.10;;;;;;6314002;22;20007;-76
2022/04/14 14:13:07;;;;;;;18.33;14.07;;;25.50;77.80;;;;;;6314150;22;20054;-75
2022/04/14 14:15:33;;;;;;;18.05;13.57;;;24.60;82.40;;;;;;6314143;22;20757;-75
2022/04/14 14:17:58;;;;;;;16.63;12.98;;;24.10;84.20;;;;;;6312098;22;20015;-75
2022/04/14 14:20:24;;;;;;;19.60;13.75;;;23.70;87.80;;;;;;6313347;22;20016;-75
2022/04/14 14:22:50;;;;;;;23.02;14.45;;;23.60;89.20;;;;;;6312470;22;20014;-76
2022/04/14 14:25:17;;;;;;;17.65;12.25;;;23.50;88.50;;;;;;6314066;22;20008;-75
2022/04/14 14:27:43;;;;;;;18.50;13.10;;;23.80;86.80;;;;;;6312199;22;20459;-75
2022/04/14 14:30:09;;;;;;;18.40;13.88;;;24.10;87.00;;;;;;6313647;22;20090;-76
2022/04/14 14:32:36;;;;;;;16.85;13.45;;;24.60;84.40;;;;;;6313873;22;20083;-75
2022/04/14 14:35:03;;;;;;;15.15;13.25;;;25.30;82.70;;;;;;6314084;22;20012;-75
2022/04/14 14:37:28;;;;;;;16.30;13.13;;;26.30;79.20;;;;;;6312414;22;20014;-76
2022/04/14 14:39:54;;;;;;;16.13;12.00;;;25.70;81.60;;;;;;6313136;22;20101;-77
2022/04/14 14:42:21;;;;;;;16.92;11.75;;;25.40;84.00;;;;;;6314006;22;20007;-76
2022/04/14 14:44:46;;;;;;;14.45;12.13;;;25.50;81.10;;;;;;6311952;22;20047;-76
2022/04/14 14:47:12;;;;;;;17.98;11.23;;;24.90;81.90;;;;;;6314005;22;20056;-76
2022/04/14 14:49:38;;;;;;;13.95;10.77;;;24.60;80.90;;;;;;6312222;22;20086;-77
2022/04/14 14:52:04;;;;;;;17.75;11.50;;;24.20;83.90;;;;;;6312284;22;20016;-77
2022/04/14 14:54:30;;;;;;;16.35;10.95;;;23.60;87.00;;;;;;6313166;22;20448;-77
2022/04/14 14:56:56;;;;;;;14.82;11.60;;;23.20;89.30;;;;;;6313763;22;19999;-77
2022/04/14 14:59:22;;;;;;;17.20;12.93;;;22.80;89.00;;;;;;6313195;22;20004;-76
2022/04/14 15:01:49;;;;;;;17.75;11.68;;;22.90;89.60;;;;;;6314156;22;20007;-78
2022/04/14 15:04:15;;;;;;;12.48;10.00;;;23.20;88.60;;;;;;6313935;22;20065;-77
2022/04/14 15:06:42;;;;;;;15.10;9.38;;;23.60;86.20;;;;;;6311758;22;20069;-76
2022/04/14 15:09:08;;;;;;;11.00;8.30;;;23.90;86.50;;;;;;6313820;22;20011;-77
2022/04/14 15:11:35;;;;;;;11.95;8.77;;;23.80;87.40;;;;;;6314365;22;20008;-77
2022/04/14 15:14:02;;;;;;;11.70;8.70;;;24.20;85.10;;;;;;6314341;22;20402;-78
2022/04/14 15:16:28;;;;;;;10.68;8.20;;;24.50;82.40;;;;;;6311639;22;21437;-77
2022/04/14 15:18:54;;;;;;;11.90;8.57;;;24.40;82.10;;;;;;6313064;22;20394;-77
2022/04/14 15:21:20;;;;;;;13.55;8.68;;;24.10;84.70;;;;;;6313218;22;20068;-77
2022/04/14 15:23:46;;;;;;;11.80;8.32;;;24.00;85.30;;;;;;6313343;22;20057;-77
2022/04/14 15:26:11;;;;;;;12.63;7.85;;;24.30;83.10;;;;;;6315466;22;20019;-78
2022/04/14 15:28:37;;;;;;;11.77;7.00;;;24.90;82.00;;;;;;6313900;22;20542;-77
2022/04/14 15:31:03;;;;;;;11.48;7.63;;;25.90;80.30;;;;;;6314065;22;20004;-77
2022/04/14 15:33:30;;;;;;;10.55;6.75;;;26.50;75.40;;;;;;6314184;22;19999;-77
2022/04/14 15:35:56;;;;;;;11.90;7.65;;;26.50;74.50;;;;;;6314063;22;20023;-74
2022/04/14 15:38:21;;;;;;;10.30;7.32;;;26.10;77.10;;;;;;6311676;22;20470;-74
2022/04/14 15:40:47;;;;;;;14.32;7.88;;;25.30;75.80;;;;;;6314162;22;20011;-74
2022/04/14 15:43:13;;;;;;;12.10;7.22;;;24.50;80.50;;;;;;6314102;22;20007;-74
2022/04/14 15:45:38;;;;;;;12.45;7.32;;;23.80;82.40;;;;;;6312706;22;20038;-75
2022/04/14 15:48:04;;;;;;;11.75;7.68;;;23.10;85.00;;;;;;6312154;22;20075;-75
2022/04/14 15:50:30;;;;;;;16.30;7.75;;;22.80;86.50;;;;;;6314060;22;20057;-77
2022/04/14 15:52:56;;;;;;;9.60;7.57;;;22.70;88.10;;;;;;6312133;22;19999;-77
2022/04/14 15:55:22;;;;;;;10.63;8.02;;;22.50;88.00;;;;;;6312096;22;20020;-74
2022/04/14 15:57:48;;;;;;;13.20;8.02;;;22.30;87.50;;;;;;6314152;22;20027;-75
2022/04/14 16:00:15;;;;;;;10.82;7.88;;;22.10;88.60;;;;;;6312292;22;20505;-77
2022/04/14 16:02:45;;;;;;;10.38;7.53;;;22.10;90.10;;;;;;6312565;22;19999;-77
2022/04/14 16:05:12;;;;;;;11.60;7.32;;;22.30;89.40;;;;;;6314180;22;20015;-74
2022/04/14 16:07:38;;;;;;;11.00;7.68;;;22.60;87.30;;;;;;6314202;22;20059;-75
2022/04/14 16:12:50;;;;;;;11.02;6.72;;;23.60;85.40;;;;;;6314783;22;20087;-77
2022/04/14 16:15:16;;;;;;;11.85;6.80;;;23.70;82.80;;;;;;6312656;22;20078;-74
2022/04/14 16:17:42;;;;;;;9.70;6.40;;;23.40;85.30;;;;;;6313676;22;20012;-79
2022/04/14 16:20:08;;;;;;;12.60;6.93;;;23.10;85.40;;;;;;6311350;22;20020;-75
2022/04/14 16:22:34;;;;;;;10.90;7.03;;;22.50;87.20;;;;;;6314976;22;20008;-76
2022/04/14 16:24:59;;;;;;;11.50;7.35;;;22.10;87.10;;;;;;6313606;22;20016;-74
2022/04/14 16:27:25;;;;;;;10.93;7.35;;;21.70;90.00;;;;;;6314950;22;19999;-80
2022/04/14 16:29:51;;;;;;;11.07;6.78;;;21.50;89.40;;;;;;6314838;22;20007;-79
2022/04/14 16:32:17;;;;;;;14.63;7.45;;;21.20;89.00;;;;;;6313608;22;20435;-76
2022/04/14 16:34:42;;;;;;;11.77;8.00;;;20.90;89.70;;;;;;6314886;22;20023;-74
2022/04/14 16:37:08;;;;;;;21.02;8.88;;;20.70;90.40;;;;;;6326562;22;20000;-76
2022/04/14 16:39:33;;;;;;;9.73;4.43;;;20.60;91.00;;;;;;6339648;22;19988;-74